sensor_id;sensor_type;location;lat;lon;timestamp;P1;durP1;ratioP1;P2;durP2;ratioP2
25637;SDS011;13496;51.040;13.680;2023-12-29T00:02:08;37.87;;;24.33;;
25637;SDS011;13496;51.040;13.680;2023-12-29T00:07:10;33.70;;;24.37;;
25637;SDS011;13496;51.040;13.680;2023-12-29T00:12:12;32.67;;;23.27;;
25637;SDS011;13496;51.040;13.680;2023-12-29T00:17:14;34.17;;;23.85;;
25637;SDS011;13496;51.040;13.680;2023-12-29T00:22:16;32.83;;;23.35;;
25637;SDS011;13496;51.040;13.680;2023-12-29T00:27:18;33.00;;;23.60;;
25637;SDS011;13496;51.040;13.680;2023-12-29T00:32:20;33.60;;;22.35;;
25637;SDS011;13496;51.040;13.680;2023-12-29T00:37:22;30.20;;;20.95;;
25637;SDS011;13496;51.040;13.680;2023-12-29T00:42:24;29.02;;;20.45;;
25637;SDS011;13496;51.040;13.680;2023-12-29T00:47:25;29.13;;;20.85;;
25637;SDS011;13496;51.040;13.680;2023-12-29T00:52:27;26.50;;;19.60;;
25637;SDS011;13496;51.040;13.680;2023-12-29T00:57:29;28.40;;;20.97;;
25637;SDS011;13496;51.040;13.680;2023-12-29T01:02:31;28.73;;;20.00;;
25637;SDS011;13496;51.040;13.680;2023-12-29T01:07:33;24.65;;;19.15;;
25637;SDS011;13496;51.040;13.680;2023-12-29T01:12:34;25.97;;;18.57;;
25637;SDS011;13496;51.040;13.680;2023-12-29T01:17:36;25.90;;;17.43;;
25637;SDS011;13496;51.040;13.680;2023-12-29T01:22:38;24.88;;;17.45;;
25637;SDS011;13496;51.040;13.680;2023-12-29T01:27:40;27.57;;;19.20;;
25637;SDS011;13496;51.040;13.680;2023-12-29T01:32:42;23.93;;;18.07;;
25637;SDS011;13496;51.040;13.680;2023-12-29T01:37:44;22.40;;;17.50;;
25637;SDS011;13496;51.040;13.680;2023-12-29T01:42:45;21.30;;;16.20;;
25637;SDS011;13496;51.040;13.680;2023-12-29T01:47:48;22.10;;;16.58;;
25637;SDS011;13496;51.040;13.680;2023-12-29T01:52:50;21.20;;;15.98;;
25637;SDS011;13496;51.040;13.680;2023-12-29T01:57:53;21.80;;;15.73;;
25637;SDS011;13496;51.040;13.680;2023-12-29T02:02:57;20.90;;;15.73;;
25637;SDS011;13496;51.040;13.680;2023-12-29T02:07:59;20.03;;;15.60;;
25637;SDS011;13496;51.040;13.680;2023-12-29T02:13:02;20.67;;;14.63;;
25637;SDS011;13496;51.040;13.680;2023-12-29T02:18:05;19.73;;;14.70;;
25637;SDS011;13496;51.040;13.680;2023-12-29T02:23:08;19.57;;;14.80;;
25637;SDS011;13496;51.040;13.680;2023-12-29T02:28:23;21.07;;;14.97;;
25637;SDS011;13496;51.040;13.680;2023-12-29T02:33:27;18.40;;;13.93;;
25637;SDS011;13496;51.040;13.680;2023-12-29T02:38:31;18.80;;;13.80;;
25637;SDS011;13496;51.040;13.680;2023-12-29T02:43:35;17.70;;;13.60;;
25637;SDS011;13496;51.040;13.680;2023-12-29T02:48:37;17.30;;;13.17;;
25637;SDS011;13496;51.040;13.680;2023-12-29T02:53:39;16.10;;;12.67;;
25637;SDS011;13496;51.040;13.680;2023-12-29T02:58:40;17.08;;;12.65;;
25637;SDS011;13496;51.040;13.680;2023-12-29T03:03:42;14.63;;;11.50;;
25637;SDS011;13496;51.040;13.680;2023-12-29T03:08:45;15.20;;;11.53;;
25637;SDS011;13496;51.040;13.680;2023-12-29T03:13:46;15.48;;;12.18;;
25637;SDS011;13496;51.040;13.680;2023-12-29T03:18:48;14.98;;;11.05;;
25637;SDS011;13496;51.040;13.680;2023-12-29T03:23:50;13.73;;;10.98;;
25637;SDS011;13496;51.040;13.680;2023-12-29T03:28:52;12.33;;;10.63;;
25637;SDS011;13496;51.040;13.680;2023-12-29T03:33:54;14.43;;;11.18;;
25637;SDS011;13496;51.040;13.680;2023-12-29T03:38:55;14.00;;;10.97;;
25637;SDS011;13496;51.040;13.680;2023-12-29T03:43:57;13.63;;;10.73;;
25637;SDS011;13496;51.040;13.680;2023-12-29T03:49:00;14.83;;;10.73;;
25637;SDS011;13496;51.040;13.680;2023-12-29T03:54:03;14.10;;;10.23;;
25637;SDS011;13496;51.040;13.680;2023-12-29T03:59:05;13.40;;;10.45;;
25637;SDS011;13496;51.040;13.680;2023-12-29T04:04:07;12.23;;;9.48;;
25637;SDS011;13496;51.040;13.680;2023-12-29T04:09:09;11.55;;;10.02;;
25637;SDS011;13496;51.040;13.680;2023-12-29T04:14:11;12.33;;;8.87;;
25637;SDS011;13496;51.040;13.680;2023-12-29T04:19:14;11.00;;;9.33;;
25637;SDS011;13496;51.040;13.680;2023-12-29T04:24:16;12.00;;;9.37;;
25637;SDS011;13496;51.040;13.680;2023-12-29T04:29:17;11.93;;;9.48;;
25637;SDS011;13496;51.040;13.680;2023-12-29T04:34:19;9.87;;;8.57;;
25637;SDS011;13496;51.040;13.680;2023-12-29T04:39:21;9.77;;;8.07;;
25637;SDS011;13496;51.040;13.680;2023-12-29T04:44:23;9.83;;;7.40;;
25637;SDS011;13496;51.040;13.680;2023-12-29T04:49:24;10.63;;;8.45;;
25637;SDS011;13496;51.040;13.680;2023-12-29T04:54:26;8.50;;;7.60;;
25637;SDS011;13496;51.040;13.680;2023-12-29T04:59:28;7.63;;;6.40;;
25637;SDS011;13496;51.040;13.680;2023-12-29T05:04:30;8.47;;;6.97;;
25637;SDS011;13496;51.040;13.680;2023-12-29T05:09:32;9.40;;;7.60;;
25637;SDS011;13496;51.040;13.680;2023-12-29T05:14:33;8.50;;;7.60;;
25637;SDS011;13496;51.040;13.680;2023-12-29T05:19:35;8.75;;;7.25;;
25637;SDS011;13496;51.040;13.680;2023-12-29T05:24:37;7.93;;;6.87;;
25637;SDS011;13496;51.040;13.680;2023-12-29T05:29:39;9.70;;;6.90;;
25637;SDS011;13496;51.040;13.680;2023-12-29T05:34:41;8.27;;;6.80;;
25637;SDS011;13496;51.040;13.680;2023-12-29T05:39:42;7.95;;;6.55;;
25637;SDS011;13496;51.040;13.680;2023-12-29T05:44:44;9.60;;;6.88;;
25637;SDS011;13496;51.040;13.680;2023-12-29T05:49:46;8.07;;;6.70;;
25637;SDS011;13496;51.040;13.680;2023-12-29T05:54:48;7.30;;;6.35;;
25637;SDS011;13496;51.040;13.680;2023-12-29T05:59:50;6.17;;;5.57;;
25637;SDS011;13496;51.040;13.680;2023-12-29T06:04:52;8.53;;;6.37;;
25637;SDS011;13496;51.040;13.680;2023-12-29T06:09:54;7.32;;;5.80;;
25637;SDS011;13496;51.040;13.680;2023-12-29T06:14:56;6.85;;;5.85;;
25637;SDS011;13496;51.040;13.680;2023-12-29T06:19:57;6.32;;;5.65;;
25637;SDS011;13496;51.040;13.680;2023-12-29T06:24:59;6.13;;;5.40;;
25637;SDS011;13496;51.040;13.680;2023-12-29T06:30:01;6.10;;;5.10;;
25637;SDS011;13496;51.040;13.680;2023-12-29T06:35:04;6.13;;;5.40;;
25637;SDS011;13496;51.040;13.680;2023-12-29T06:40:06;4.68;;;4.18;;
25637;SDS011;13496;51.040;13.680;2023-12-29T06:45:08;6.43;;;4.70;;
25637;SDS011;13496;51.040;13.680;2023-12-29T06:50:10;5.43;;;4.30;;
25637;SDS011;13496;51.040;13.680;2023-12-29T06:55:14;5.10;;;4.60;;
25637;SDS011;13496;51.040;13.680;2023-12-29T07:00:15;4.97;;;4.40;;
25637;SDS011;13496;51.040;13.680;2023-12-29T07:05:18;5.00;;;4.13;;
25637;SDS011;13496;51.040;13.680;2023-12-29T07:10:19;6.47;;;4.73;;
25637;SDS011;13496;51.040;13.680;2023-12-29T07:15:21;6.38;;;3.97;;
25637;SDS011;13496;51.040;13.680;2023-12-29T07:20:24;5.05;;;4.35;;
25637;SDS011;13496;51.040;13.680;2023-12-29T07:25:26;4.70;;;4.07;;
25637;SDS011;13496;51.040;13.680;2023-12-29T07:30:27;4.93;;;4.00;;
25637;SDS011;13496;51.040;13.680;2023-12-29T07:35:29;4.43;;;3.77;;
25637;SDS011;13496;51.040;13.680;2023-12-29T07:40:31;4.68;;;4.18;;
25637;SDS011;13496;51.040;13.680;2023-12-29T07:45:33;6.60;;;4.07;;
25637;SDS011;13496;51.040;13.680;2023-12-29T07:50:35;5.03;;;4.28;;
25637;SDS011;13496;51.040;13.680;2023-12-29T07:55:38;4.32;;;3.70;;
25637;SDS011;13496;51.040;13.680;2023-12-29T08:00:41;5.57;;;4.10;;
25637;SDS011;13496;51.040;13.680;2023-12-29T08:05:43;6.13;;;4.10;;
25637;SDS011;13496;51.040;13.680;2023-12-29T08:10:45;4.30;;;3.70;;
25637;SDS011;13496;51.040;13.680;2023-12-29T08:15:46;4.60;;;3.58;;
25637;SDS011;13496;51.040;13.680;2023-12-29T08:20:49;4.05;;;3.28;;
25637;SDS011;13496;51.040;13.680;2023-12-29T08:25:50;5.47;;;3.53;;
25637;SDS011;13496;51.040;13.680;2023-12-29T08:30:52;4.28;;;3.60;;
25637;SDS011;13496;51.040;13.680;2023-12-29T08:35:54;6.85;;;3.50;;
25637;SDS011;13496;51.040;13.680;2023-12-29T08:41:03;3.50;;;3.20;;
25637;SDS011;13496;51.040;13.680;2023-12-29T08:46:05;3.08;;;2.78;;
25637;SDS011;13496;51.040;13.680;2023-12-29T08:51:07;3.40;;;3.03;;
25637;SDS011;13496;51.040;13.680;2023-12-29T08:56:09;3.47;;;3.15;;
25637;SDS011;13496;51.040;13.680;2023-12-29T09:01:10;4.63;;;3.15;;
25637;SDS011;13496;51.040;13.680;2023-12-29T09:06:12;5.68;;;3.17;;
25637;SDS011;13496;51.040;13.680;2023-12-29T09:11:15;4.35;;;2.92;;
25637;SDS011;13496;51.040;13.680;2023-12-29T09:16:17;3.00;;;2.70;;
25637;SDS011;13496;51.040;13.680;2023-12-29T09:21:19;4.40;;;3.00;;
25637;SDS011;13496;51.040;13.680;2023-12-29T09:26:20;3.55;;;2.72;;
25637;SDS011;13496;51.040;13.680;2023-12-29T09:31:22;5.70;;;2.88;;
25637;SDS011;13496;51.040;13.680;2023-12-29T09:36:24;4.68;;;3.33;;
25637;SDS011;13496;51.040;13.680;2023-12-29T09:41:26;3.47;;;2.83;;
25637;SDS011;13496;51.040;13.680;2023-12-29T09:46:32;4.65;;;3.15;;
25637;SDS011;13496;51.040;13.680;2023-12-29T09:51:35;2.90;;;2.60;;
25637;SDS011;13496;51.040;13.680;2023-12-29T09:56:38;3.95;;;2.70;;
25637;SDS011;13496;51.040;13.680;2023-12-29T10:01:40;4.65;;;3.15;;
25637;SDS011;13496;51.040;13.680;2023-12-29T10:06:44;3.53;;;2.92;;
25637;SDS011;13496;51.040;13.680;2023-12-29T10:11:48;3.75;;;2.78;;
25637;SDS011;13496;51.040;13.680;2023-12-29T10:16:58;3.72;;;2.80;;
25637;SDS011;13496;51.040;13.680;2023-12-29T10:22:27;3.45;;;3.15;;
25637;SDS011;13496;51.040;13.680;2023-12-29T10:27:37;3.42;;;2.80;;
25637;SDS011;13496;51.040;13.680;2023-12-29T10:32:39;4.30;;;2.90;;
25637;SDS011;13496;51.040;13.680;2023-12-29T10:37:41;3.80;;;3.40;;
25637;SDS011;13496;51.040;13.680;2023-12-29T10:42:55;3.83;;;3.05;;
25637;SDS011;13496;51.040;13.680;2023-12-29T10:48:01;3.60;;;2.78;;
25637;SDS011;13496;51.040;13.680;2023-12-29T10:53:10;3.38;;;2.90;;
25637;SDS011;13496;51.040;13.680;2023-12-29T10:58:20;3.88;;;2.58;;
25637;SDS011;13496;51.040;13.680;2023-12-29T11:03:22;3.90;;;2.88;;
25637;SDS011;13496;51.040;13.680;2023-12-29T11:08:25;4.53;;;2.92;;
25637;SDS011;13496;51.040;13.680;2023-12-29T11:13:27;4.40;;;3.30;;
25637;SDS011;13496;51.040;13.680;2023-12-29T11:18:31;3.67;;;2.97;;
25637;SDS011;13496;51.040;13.680;2023-12-29T11:23:35;3.83;;;3.25;;
25637;SDS011;13496;51.040;13.680;2023-12-29T11:28:36;5.10;;;3.53;;
25637;SDS011;13496;51.040;13.680;2023-12-29T11:33:40;4.55;;;3.15;;
25637;SDS011;13496;51.040;13.680;2023-12-29T11:44:09;5.45;;;3.10;;
25637;SDS011;13496;51.040;13.680;2023-12-29T11:49:11;3.08;;;2.60;;
25637;SDS011;13496;51.040;13.680;2023-12-29T11:54:23;4.43;;;3.10;;
25637;SDS011;13496;51.040;13.680;2023-12-29T11:59:28;2.97;;;2.70;;
25637;SDS011;13496;51.040;13.680;2023-12-29T12:04:33;3.10;;;2.60;;
25637;SDS011;13496;51.040;13.680;2023-12-29T12:09:39;2.90;;;2.55;;
25637;SDS011;13496;51.040;13.680;2023-12-29T12:19:55;3.22;;;2.55;;
25637;SDS011;13496;51.040;13.680;2023-12-29T12:24:59;3.17;;;2.45;;
25637;SDS011;13496;51.040;13.680;2023-12-29T12:30:01;2.72;;;2.33;;
25637;SDS011;13496;51.040;13.680;2023-12-29T12:35:04;4.43;;;3.10;;
25637;SDS011;13496;51.040;13.680;2023-12-29T12:40:25;3.67;;;3.05;;
25637;SDS011;13496;51.040;13.680;2023-12-29T12:45:28;5.50;;;2.67;;
25637;SDS011;13496;51.040;13.680;2023-12-29T12:50:35;3.42;;;3.10;;
25637;SDS011;13496;51.040;13.680;2023-12-29T12:55:37;4.05;;;2.85;;
25637;SDS011;13496;51.040;13.680;2023-12-29T13:00:39;4.53;;;2.80;;
25637;SDS011;13496;51.040;13.680;2023-12-29T13:05:41;4.15;;;2.83;;
25637;SDS011;13496;51.040;13.680;2023-12-29T13:10:43;3.45;;;2.95;;
25637;SDS011;13496;51.040;13.680;2023-12-29T13:15:49;3.40;;;3.03;;
25637;SDS011;13496;51.040;13.680;2023-12-29T13:20:51;4.50;;;3.00;;
25637;SDS011;13496;51.040;13.680;2023-12-29T13:25:54;2.60;;;2.40;;
25637;SDS011;13496;51.040;13.680;2023-12-29T13:30:58;2.95;;;2.63;;
25637;SDS011;13496;51.040;13.680;2023-12-29T13:36:09;3.28;;;2.70;;
25637;SDS011;13496;51.040;13.680;2023-12-29T13:41:19;3.33;;;2.75;;
25637;SDS011;13496;51.040;13.680;2023-12-29T13:46:23;2.95;;;2.65;;
25637;SDS011;13496;51.040;13.680;2023-12-29T13:51:25;3.55;;;2.60;;
25637;SDS011;13496;51.040;13.680;2023-12-29T13:56:27;3.92;;;2.60;;
25637;SDS011;13496;51.040;13.680;2023-12-29T14:01:34;3.65;;;2.88;;
25637;SDS011;13496;51.040;13.680;2023-12-29T14:11:51;3.35;;;2.47;;
25637;SDS011;13496;51.040;13.680;2023-12-29T14:16:54;3.85;;;2.40;;
25637;SDS011;13496;51.040;13.680;2023-12-29T14:21:56;3.88;;;2.60;;
25637;SDS011;13496;51.040;13.680;2023-12-29T14:26:58;2.30;;;2.10;;
25637;SDS011;13496;51.040;13.680;2023-12-29T14:32:00;3.70;;;2.47;;
25637;SDS011;13496;51.040;13.680;2023-12-29T14:37:02;2.70;;;2.50;;
25637;SDS011;13496;51.040;13.680;2023-12-29T14:42:04;3.07;;;2.40;;
25637;SDS011;13496;51.040;13.680;2023-12-29T14:47:06;3.80;;;2.30;;
25637;SDS011;13496;51.040;13.680;2023-12-29T14:52:08;3.60;;;2.55;;
25637;SDS011;13496;51.040;13.680;2023-12-29T14:57:10;2.72;;;2.40;;
25637;SDS011;13496;51.040;13.680;2023-12-29T15:02:12;3.17;;;2.57;;
25637;SDS011;13496;51.040;13.680;2023-12-29T15:07:13;5.72;;;2.28;;
25637;SDS011;13496;51.040;13.680;2023-12-29T15:12:15;2.45;;;2.08;;
25637;SDS011;13496;51.040;13.680;2023-12-29T15:17:17;2.65;;;2.13;;
25637;SDS011;13496;51.040;13.680;2023-12-29T15:22:19;2.55;;;2.30;;
25637;SDS011;13496;51.040;13.680;2023-12-29T15:27:20;3.37;;;2.23;;
25637;SDS011;13496;51.040;13.680;2023-12-29T15:32:22;3.33;;;2.40;;
25637;SDS011;13496;51.040;13.680;2023-12-29T15:37:24;3.47;;;2.07;;
25637;SDS011;13496;51.040;13.680;2023-12-29T15:42:26;3.27;;;1.90;;
25637;SDS011;13496;51.040;13.680;2023-12-29T15:47:28;3.83;;;2.10;;
25637;SDS011;13496;51.040;13.680;2023-12-29T15:52:30;3.47;;;2.20;;
25637;SDS011;13496;51.040;13.680;2023-12-29T15:57:32;4.45;;;2.15;;
25637;SDS011;13496;51.040;13.680;2023-12-29T16:02:34;3.65;;;2.00;;
25637;SDS011;13496;51.040;13.680;2023-12-29T16:07:36;3.17;;;2.30;;
25637;SDS011;13496;51.040;13.680;2023-12-29T16:12:37;2.07;;;1.93;;
25637;SDS011;13496;51.040;13.680;2023-12-29T16:17:39;2.03;;;1.83;;
25637;SDS011;13496;51.040;13.680;2023-12-29T16:22:41;4.10;;;2.00;;
25637;SDS011;13496;51.040;13.680;2023-12-29T16:27:43;2.70;;;1.95;;
25637;SDS011;13496;51.040;13.680;2023-12-29T16:32:46;3.70;;;1.95;;
25637;SDS011;13496;51.040;13.680;2023-12-29T16:37:47;2.33;;;1.90;;
25637;SDS011;13496;51.040;13.680;2023-12-29T16:42:50;3.80;;;1.83;;
25637;SDS011;13496;51.040;13.680;2023-12-29T16:47:54;2.70;;;1.80;;
25637;SDS011;13496;51.040;13.680;2023-12-29T16:52:56;2.20;;;2.00;;
25637;SDS011;13496;51.040;13.680;2023-12-29T16:57:58;2.25;;;1.88;;
25637;SDS011;13496;51.040;13.680;2023-12-29T17:03:00;3.23;;;2.07;;
25637;SDS011;13496;51.040;13.680;2023-12-29T17:08:01;2.33;;;2.10;;
25637;SDS011;13496;51.040;13.680;2023-12-29T17:13:04;2.33;;;1.85;;
25637;SDS011;13496;51.040;13.680;2023-12-29T17:18:06;2.07;;;1.87;;
25637;SDS011;13496;51.040;13.680;2023-12-29T17:23:08;2.28;;;1.90;;
25637;SDS011;13496;51.040;13.680;2023-12-29T17:28:10;2.90;;;1.60;;
25637;SDS011;13496;51.040;13.680;2023-12-29T17:33:12;2.67;;;1.60;;
25637;SDS011;13496;51.040;13.680;2023-12-29T17:38:14;2.25;;;1.90;;
25637;SDS011;13496;51.040;13.680;2023-12-29T17:43:15;1.92;;;1.75;;
25637;SDS011;13496;51.040;13.680;2023-12-29T17:48:17;2.75;;;1.83;;
25637;SDS011;13496;51.040;13.680;2023-12-29T17:53:19;1.90;;;1.70;;
25637;SDS011;13496;51.040;13.680;2023-12-29T17:58:21;2.13;;;1.52;;
25637;SDS011;13496;51.040;13.680;2023-12-29T18:03:23;2.50;;;1.70;;
25637;SDS011;13496;51.040;13.680;2023-12-29T18:08:25;2.10;;;1.90;;
25637;SDS011;13496;51.040;13.680;2023-12-29T18:13:27;2.25;;;1.65;;
25637;SDS011;13496;51.040;13.680;2023-12-29T18:18:29;2.85;;;1.80;;
25637;SDS011;13496;51.040;13.680;2023-12-29T18:23:31;1.77;;;1.55;;
25637;SDS011;13496;51.040;13.680;2023-12-29T18:28:32;1.75;;;1.40;;
25637;SDS011;13496;51.040;13.680;2023-12-29T18:33:35;1.50;;;1.40;;
25637;SDS011;13496;51.040;13.680;2023-12-29T18:38:39;2.15;;;1.70;;
25637;SDS011;13496;51.040;13.680;2023-12-29T18:43:41;2.17;;;1.70;;
25637;SDS011;13496;51.040;13.680;2023-12-29T18:48:43;1.65;;;1.55;;
25637;SDS011;13496;51.040;13.680;2023-12-29T18:53:45;1.73;;;1.50;;
25637;SDS011;13496;51.040;13.680;2023-12-29T18:58:46;1.63;;;1.53;;
25637;SDS011;13496;51.040;13.680;2023-12-29T19:03:48;2.35;;;1.60;;
25637;SDS011;13496;51.040;13.680;2023-12-29T19:08:50;2.45;;;1.60;;
25637;SDS011;13496;51.040;13.680;2023-12-29T19:13:52;1.42;;;1.33;;
25637;SDS011;13496;51.040;13.680;2023-12-29T19:18:54;1.50;;;1.40;;
25637;SDS011;13496;51.040;13.680;2023-12-29T19:23:56;2.05;;;1.40;;
25637;SDS011;13496;51.040;13.680;2023-12-29T19:28:58;2.03;;;1.60;;
25637;SDS011;13496;51.040;13.680;2023-12-29T19:34:00;1.55;;;1.45;;
25637;SDS011;13496;51.040;13.680;2023-12-29T19:39:01;1.65;;;1.40;;
25637;SDS011;13496;51.040;13.680;2023-12-29T19:44:03;2.30;;;1.50;;
25637;SDS011;13496;51.040;13.680;2023-12-29T19:49:05;1.50;;;1.40;;
25637;SDS011;13496;51.040;13.680;2023-12-29T19:54:07;1.58;;;1.40;;
25637;SDS011;13496;51.040;13.680;2023-12-29T19:59:10;1.90;;;1.40;;
25637;SDS011;13496;51.040;13.680;2023-12-29T20:04:12;1.70;;;1.33;;
25637;SDS011;13496;51.040;13.680;2023-12-29T20:09:14;1.40;;;1.30;;
25637;SDS011;13496;51.040;13.680;2023-12-29T20:14:16;1.73;;;1.20;;
25637;SDS011;13496;51.040;13.680;2023-12-29T20:19:19;2.20;;;1.20;;
25637;SDS011;13496;51.040;13.680;2023-12-29T20:24:21;1.52;;;1.20;;
25637;SDS011;13496;51.040;13.680;2023-12-29T20:29:23;2.50;;;1.58;;
25637;SDS011;13496;51.040;13.680;2023-12-29T20:34:25;1.67;;;1.40;;
25637;SDS011;13496;51.040;13.680;2023-12-29T20:39:27;1.40;;;1.15;;
25637;SDS011;13496;51.040;13.680;2023-12-29T20:44:29;1.35;;;1.25;;
25637;SDS011;13496;51.040;13.680;2023-12-29T20:49:31;1.40;;;1.20;;
25637;SDS011;13496;51.040;13.680;2023-12-29T20:54:32;2.03;;;1.38;;
25637;SDS011;13496;51.040;13.680;2023-12-29T20:59:37;1.92;;;1.42;;
25637;SDS011;13496;51.040;13.680;2023-12-29T21:04:40;2.00;;;1.15;;
25637;SDS011;13496;51.040;13.680;2023-12-29T21:09:43;1.45;;;1.35;;
25637;SDS011;13496;51.040;13.680;2023-12-29T21:14:45;2.30;;;1.23;;
25637;SDS011;13496;51.040;13.680;2023-12-29T21:19:48;1.63;;;1.52;;
25637;SDS011;13496;51.040;13.680;2023-12-29T21:24:50;1.45;;;1.23;;
25637;SDS011;13496;51.040;13.680;2023-12-29T21:29:52;1.17;;;1.10;;
25637;SDS011;13496;51.040;13.680;2023-12-29T21:34:55;1.20;;;1.10;;
25637;SDS011;13496;51.040;13.680;2023-12-29T21:39:57;1.40;;;1.05;;
25637;SDS011;13496;51.040;13.680;2023-12-29T21:44:59;1.13;;;1.10;;
25637;SDS011;13496;51.040;13.680;2023-12-29T21:50:02;1.25;;;1.15;;
25637;SDS011;13496;51.040;13.680;2023-12-29T21:55:05;1.30;;;0.98;;
25637;SDS011;13496;51.040;13.680;2023-12-29T22:00:07;1.23;;;1.10;;
25637;SDS011;13496;51.040;13.680;2023-12-29T22:05:10;1.90;;;1.17;;
25637;SDS011;13496;51.040;13.680;2023-12-29T22:10:12;1.55;;;1.08;;
25637;SDS011;13496;51.040;13.680;2023-12-29T22:15:13;1.33;;;1.10;;
25637;SDS011;13496;51.040;13.680;2023-12-29T22:20:15;0.95;;;0.90;;
25637;SDS011;13496;51.040;13.680;2023-12-29T22:25:17;1.23;;;1.10;;
25637;SDS011;13496;51.040;13.680;2023-12-29T22:30:19;1.00;;;0.90;;
25637;SDS011;13496;51.040;13.680;2023-12-29T22:35:21;0.88;;;0.88;;
25637;SDS011;13496;51.040;13.680;2023-12-29T22:40:23;1.02;;;0.85;;
25637;SDS011;13496;51.040;13.680;2023-12-29T22:45:25;1.35;;;1.15;;
25637;SDS011;13496;51.040;13.680;2023-12-29T22:50:28;1.17;;;0.82;;
25637;SDS011;13496;51.040;13.680;2023-12-29T22:55:30;0.85;;;0.77;;
25637;SDS011;13496;51.040;13.680;2023-12-29T23:00:32;1.10;;;0.90;;
25637;SDS011;13496;51.040;13.680;2023-12-29T23:05:37;1.65;;;0.90;;
25637;SDS011;13496;51.040;13.680;2023-12-29T23:10:39;2.35;;;1.00;;
25637;SDS011;13496;51.040;13.680;2023-12-29T23:15:41;1.65;;;1.00;;
25637;SDS011;13496;51.040;13.680;2023-12-29T23:20:44;0.82;;;0.80;;
25637;SDS011;13496;51.040;13.680;2023-12-29T23:25:48;1.00;;;1.00;;
25637;SDS011;13496;51.040;13.680;2023-12-29T23:30:49;1.55;;;0.90;;
25637;SDS011;13496;51.040;13.680;2023-12-29T23:35:51;0.80;;;0.80;;
25637;SDS011;13496;51.040;13.680;2023-12-29T23:40:53;1.50;;;1.02;;
25637;SDS011;13496;51.040;13.680;2023-12-29T23:45:56;1.67;;;0.93;;
25637;SDS011;13496;51.040;13.680;2023-12-29T23:50:58;0.90;;;0.90;;
25637;SDS011;13496;51.040;13.680;2023-12-29T23:56:00;0.60;;;0.60;;
